Aérodrome :
LOGIN :

S'inscrire | Disclaimer

   EN    FR    IT 

 










Légende :    VFR   VFR Marginal   IFR   IFR Intensif   IFR Très Intensif
Visi : 
Plafond : 
>= 8 km
>= 3000ft
5 à 8 km
1000 à 3000 ft
1500m à 5 km
500 à 1000 ft
800 à 1500m
200 à 500 ft
< 800m
< 200 ft
Symboles :   Orages  Brouillard  Fortes neiges  Fortes précipitations  Vent > 20 kt
SIGMETs :   Divers  Orages  Givrage  Turbulence  Onde Orograph.  Cendres Volcan.






- Altitude de l'aérodrome : 75 ft
- Code IATA : MRH


EGYM - RAF Marham

DERNIER METAR :
  • 261650Z 28013KT 9999 FEW020CB SCT040 06/M01 Q1005 BLU

METARs EXPIRÉS :
  • 261621Z 28012KT 9999 FEW035 SCT040 06/00 Q1004 TEMPO 7000 SHRA SCT020 RMK BLU TEMPO WHT
  • 261550Z 27012KT 9999 FEW021CB SCT030 06/02 Q1004 BLU TEMPO 4000 SHGS BKN018CB RMK BLU TEMPO GRN
  • 261520Z 26014KT 5000 VCSH SCT021CB SCT025 05/03 Q1003 TEMPO 9999 NSW RMK WHT WHT
  • 261501Z 26015KT 4000 VCSH SCT021CB SCT025 06/02 Q1003 GRN BECMG 9999 NSW RMK GRN BECMG BLU

TAF TAF EGYM
Valide du 26 à 15h jusqu'au 26 à 19h UTC


261330Z 2615/2619 29012KT 9999 FEW018 SCT025
PROB40
TEMPO 2615/2619 30015G25KT 4000 SHRA SHGS SCT008 BKN018CB



MET'MAP, la Météo Aéronautique d'un coup d'oeil ! - Copyright ORBIFLY Décembre 2007 - Disclaimer

ORBIFLY MET'MAP TEAM :

Programmation & Développement : Alexandra Zaïnal
Sur une idée originale de : Baudouin d'Aumeries
Assistance à la programmation : Marc-Olivier Méhu
Soutien technique & logistique : Manuel Goepfert

Contact : metmap@orbifly.com




SOURCES & CREDITS :

   NOAA